createdAt,value
2022-11-25T00:01:45.990Z,100053.56
2022-11-25T00:04:37.241Z,100045.47
2022-11-25T00:07:25.923Z,100048.56
2022-11-25T00:10:14.400Z,100031.34
2022-11-25T00:13:03.819Z,100050.31
2022-11-25T00:15:53.621Z,100043.00
2022-11-25T00:18:45.288Z,100030.06
2022-11-25T00:21:35.392Z,100040.44
2022-11-25T00:24:23.841Z,100041.09
2022-11-25T00:27:12.338Z,100041.09
2022-11-25T00:30:00.799Z,100033.47
2022-11-25T00:32:50.643Z,100027.50
2022-11-25T00:35:39.107Z,100034.63
2022-11-25T00:38:27.685Z,100034.13
2022-11-25T00:41:33.637Z,100005.78
2022-11-25T00:44:38.649Z,100024.03
2022-11-25T00:47:29.451Z,100034.31
2022-11-25T00:50:19.280Z,100017.72
2022-11-25T00:53:07.705Z,100028.69
2022-11-25T00:56:14.176Z,100046.28
2022-11-25T00:59:02.602Z,100038.81
2022-11-25T01:01:51.507Z,100029.06
2022-11-25T01:04:40.246Z,100029.38
2022-11-25T01:07:30.209Z,100036.97
2022-11-25T01:10:18.733Z,100046.78
2022-11-25T01:13:07.215Z,99934.22
2022-11-25T01:15:55.926Z,99920.25
2022-11-25T01:18:44.930Z,100060.50
2022-11-25T01:21:34.947Z,100066.47
2022-11-25T01:24:26.338Z,100059.34
2022-11-25T01:27:14.819Z,100063.47
2022-11-25T01:30:03.300Z,100070.25
2022-11-25T01:32:51.758Z,100065.69
2022-11-25T01:35:40.233Z,100074.97
2022-11-25T01:38:28.681Z,100079.94
2022-11-25T01:41:18.497Z,100084.56
2022-11-25T01:44:10.621Z,100086.56
2022-11-25T01:47:04.780Z,100061.84
2022-11-25T01:49:58.199Z,100077.31
2022-11-25T01:52:47.996Z,100075.81
2022-11-25T01:55:37.903Z,100092.91
2022-11-25T01:58:30.245Z,100087.41
2022-11-25T02:01:18.781Z,100087.91
2022-11-25T02:04:07.630Z,99957.44
2022-11-25T02:06:59.227Z,100088.88
2022-11-25T02:09:48.468Z,100083.22
2022-11-25T02:12:38.508Z,100089.69
2022-11-25T02:15:30.125Z,100077.75
2022-11-25T02:18:18.790Z,100072.28
2022-11-25T02:21:07.497Z,100040.75
2022-11-25T02:24:02.472Z,100054.38
2022-11-25T02:26:52.247Z,100065.16
2022-11-25T02:29:41.185Z,100060.19
2022-11-25T02:32:29.664Z,100068.31
2022-11-25T02:35:36.458Z,100064.00
2022-11-25T02:38:31.011Z,100061.66
2022-11-25T02:41:22.293Z,100046.09
2022-11-25T02:44:12.206Z,100057.69
2022-11-25T02:47:00.701Z,100047.41
2022-11-25T02:49:49.150Z,100046.06
2022-11-25T02:52:37.623Z,100048.03
2022-11-25T02:55:26.125Z,100048.00
2022-11-25T02:58:15.098Z,100014.13
2022-11-25T03:01:04.956Z,100034.25
2022-11-25T03:03:53.533Z,100038.28
2022-11-25T03:06:42.008Z,100031.31
2022-11-25T03:09:30.507Z,100032.97
2022-11-25T03:12:21.729Z,100037.09
2022-11-25T03:15:10.801Z,100037.09
2022-11-25T03:18:00.683Z,100033.63
2022-11-25T03:20:53.384Z,100019.00
2022-11-25T03:23:41.878Z,100031.88
2022-11-25T03:26:30.379Z,100021.28
2022-11-25T03:29:18.828Z,100028.03
2022-11-25T03:32:09.721Z,100036.06
2022-11-25T03:34:59.903Z,100028.09
2022-11-25T03:37:48.508Z,99859.34
2022-11-25T03:40:36.951Z,100025.94
2022-11-25T03:43:25.386Z,100028.44
2022-11-25T03:46:13.887Z,100023.47
2022-11-25T03:49:02.408Z,100027.09
2022-11-25T03:51:52.320Z,100022.63
2022-11-25T03:54:40.767Z,100009.53
2022-11-25T03:57:29.332Z,100015.84
2022-11-25T04:00:18.077Z,100016.28
2022-11-25T04:03:06.545Z,100022.22
2022-11-25T04:05:55.139Z,100019.94
2022-11-25T04:08:45.004Z,100012.31
2022-11-25T04:11:47.333Z,100013.91
2022-11-25T04:14:36.112Z,100008.28
2022-11-25T04:17:24.761Z,100015.22
2022-11-25T04:20:14.246Z,99897.28
2022-11-25T04:23:02.741Z,100025.44
2022-11-25T04:25:52.557Z,100019.75
2022-11-25T04:28:41.006Z,100015.47
2022-11-25T04:31:29.475Z,100024.66
2022-11-25T04:34:17.923Z,100021.63
2022-11-25T04:37:06.466Z,100006.41
2022-11-25T04:39:54.986Z,99977.94
2022-11-25T04:42:44.795Z,100002.34
2022-11-25T04:45:51.527Z,99997.41
2022-11-25T04:48:41.629Z,100003.06
2022-11-25T04:51:30.085Z,99999.25
2022-11-25T04:54:18.564Z,100003.16
2022-11-25T04:57:07.083Z,99989.91
2022-11-25T04:59:55.920Z,100018.88
2022-11-25T05:02:44.413Z,100013.44
2022-11-25T05:05:33.036Z,100024.25
2022-11-25T05:08:21.446Z,100028.56
2022-11-25T05:11:09.930Z,100029.41
2022-11-25T05:13:58.419Z,100025.50
2022-11-25T05:16:48.237Z,100042.09
2022-11-25T05:19:36.785Z,100041.72
2022-11-25T05:22:28.156Z,100047.94
2022-11-25T05:25:17.237Z,100059.53
2022-11-25T05:28:05.927Z,100061.47
2022-11-25T05:30:54.448Z,100040.78
2022-11-25T05:33:44.266Z,100066.84
2022-11-25T05:36:33.017Z,100068.00
2022-11-25T05:39:21.675Z,100077.09
2022-11-25T05:42:10.115Z,100071.88
2022-11-25T05:44:58.632Z,100078.19
2022-11-25T05:47:47.083Z,100076.16
2022-11-25T05:50:37.826Z,100069.81
2022-11-25T05:53:26.288Z,100067.34
2022-11-25T05:56:14.756Z,100087.91
2022-11-25T05:59:04.578Z,100094.53
2022-11-25T06:01:53.943Z,100095.47
2022-11-25T06:04:42.438Z,100088.88
2022-11-25T06:07:32.732Z,100093.84
2022-11-25T06:10:21.503Z,100095.94
2022-11-25T06:13:10.216Z,100092.44
2022-11-25T06:16:02.282Z,100098.84
2022-11-25T06:18:55.057Z,100093.34
2022-11-25T06:21:43.528Z,100116.50
2022-11-25T06:24:33.485Z,100069.41
2022-11-25T06:27:22.112Z,100115.88
2022-11-25T06:30:12.821Z,100113.56
2022-11-25T06:33:01.268Z,100113.16
2022-11-25T06:35:49.774Z,100102.84
2022-11-25T06:38:38.211Z,100127.25
2022-11-25T06:41:28.007Z,100129.66
2022-11-25T06:44:16.521Z,100129.13
2022-11-25T06:47:05.075Z,100130.78
2022-11-25T06:49:53.501Z,100128.59
2022-11-25T06:52:42.001Z,100130.94
2022-11-25T06:55:30.466Z,100124.56
2022-11-25T06:58:35.532Z,100153.13
2022-11-25T07:01:26.583Z,100160.06
2022-11-25T07:04:15.076Z,100167.41
2022-11-25T07:07:03.772Z,100178.13
2022-11-25T07:09:52.212Z,100176.00
2022-11-25T07:12:40.712Z,100172.97
2022-11-25T07:15:30.589Z,100171.72
2022-11-25T07:18:19.088Z,100174.09
2022-11-25T07:21:09.528Z,100155.22
2022-11-25T07:24:00.077Z,100168.63
2022-11-25T07:26:48.536Z,100169.81
2022-11-25T07:29:54.560Z,100168.88
2022-11-25T07:32:46.748Z,100165.59
2022-11-25T07:35:35.238Z,100165.09
2022-11-25T07:38:23.786Z,100170.44
2022-11-25T07:41:14.292Z,100167.31
2022-11-25T07:44:05.118Z,100155.69
2022-11-25T07:46:53.669Z,100172.44
2022-11-25T07:49:43.685Z,100168.00
2022-11-25T07:52:32.148Z,100177.97
2022-11-25T07:55:20.576Z,100186.47
2022-11-25T07:58:09.062Z,100172.31
2022-11-25T08:00:57.603Z,100183.00
2022-11-25T08:03:47.704Z,100189.50
2022-11-25T08:06:40.772Z,100178.09
2022-11-25T08:09:29.339Z,100194.69
2022-11-25T08:12:17.841Z,100202.84
2022-11-25T08:15:07.113Z,100201.66
2022-11-25T08:17:55.627Z,100199.69
2022-11-25T08:20:44.300Z,100206.00
2022-11-25T08:23:34.992Z,100180.91
2022-11-25T08:26:25.741Z,100166.00
2022-11-25T08:29:16.243Z,100190.41
2022-11-25T08:32:10.285Z,100195.25
2022-11-25T08:35:00.327Z,100184.09
2022-11-25T08:37:48.897Z,100186.06
2022-11-25T08:40:38.963Z,100185.25
2022-11-25T08:43:29.545Z,100187.44
2022-11-25T08:46:20.386Z,100201.53
2022-11-25T08:49:09.997Z,100200.84
2022-11-25T08:51:58.545Z,100215.66
2022-11-25T08:54:47.329Z,100215.63
2022-11-25T08:57:37.460Z,100225.28
2022-11-25T09:00:26.063Z,100226.28
2022-11-25T09:03:14.741Z,100222.09
2022-11-25T09:06:04.420Z,100197.03
2022-11-25T09:08:55.974Z,100224.75
2022-11-25T09:11:44.621Z,100230.91
2022-11-25T09:14:34.597Z,100228.75
2022-11-25T09:17:23.088Z,100242.38
2022-11-25T09:20:12.102Z,100248.69
2022-11-25T09:23:01.400Z,100261.31
2022-11-25T09:25:52.538Z,100263.84
2022-11-25T09:28:41.010Z,100269.13
2022-11-25T09:31:30.940Z,100273.97
2022-11-25T09:34:19.506Z,100273.97
2022-11-25T09:37:08.078Z,100270.63
2022-11-25T09:39:56.921Z,100272.47
2022-11-25T09:43:08.623Z,100280.06
2022-11-25T09:46:19.300Z,100288.22
2022-11-25T09:49:22.437Z,100282.25
2022-11-25T09:52:16.708Z,100268.16
2022-11-25T09:55:07.624Z,100283.91
2022-11-25T09:58:03.783Z,100273.91
2022-11-25T10:00:52.921Z,100277.50
2022-11-25T10:03:44.391Z,100173.03
2022-11-25T10:06:37.572Z,100280.38
2022-11-25T10:09:27.590Z,100293.94
2022-11-25T10:12:24.284Z,100292.72
2022-11-25T10:15:18.816Z,100296.00
2022-11-25T10:18:15.530Z,100287.16
2022-11-25T10:21:05.452Z,100300.41
2022-11-25T10:23:55.404Z,100297.97
2022-11-25T10:26:52.090Z,100296.41
2022-11-25T10:29:40.604Z,100300.25
2022-11-25T10:32:36.070Z,100297.81
2022-11-25T10:35:31.121Z,100298.00
2022-11-25T10:38:23.669Z,100269.69
2022-11-25T10:41:17.184Z,100308.63
2022-11-25T10:44:07.332Z,100285.91
2022-11-25T10:47:14.880Z,100305.09
2022-11-25T10:50:17.538Z,100240.34
2022-11-25T10:53:12.091Z,100297.28
2022-11-25T10:56:03.523Z,100302.75
2022-11-25T10:58:55.651Z,100312.94
2022-11-25T11:01:44.233Z,100308.78
2022-11-25T11:04:34.690Z,100313.94
2022-11-25T11:07:23.852Z,100305.59
2022-11-25T11:10:22.379Z,100314.03
2022-11-25T11:13:22.892Z,100305.94
2022-11-25T11:16:31.538Z,100309.59
2022-11-25T11:19:24.402Z,100323.34
2022-11-25T11:22:17.622Z,100320.78
2022-11-25T11:25:07.761Z,100324.75
2022-11-25T11:27:56.441Z,100170.97
2022-11-25T11:30:54.880Z,100294.56
2022-11-25T11:33:56.626Z,100322.03
2022-11-25T11:36:56.930Z,100261.03
2022-11-25T11:40:03.213Z,100324.09
2022-11-25T11:43:05.113Z,100314.91
2022-11-25T11:46:02.184Z,100326.19
2022-11-25T11:49:01.232Z,100330.63
2022-11-25T11:51:56.595Z,100329.63
2022-11-25T11:54:47.117Z,100331.28
2022-11-25T11:57:41.437Z,100334.88
2022-11-25T12:00:33.717Z,100337.16
2022-11-25T12:03:24.082Z,100339.75
2022-11-25T12:06:14.532Z,100346.19
2022-11-25T12:09:05.665Z,100340.34
2022-11-25T12:11:58.212Z,100302.31
2022-11-25T12:14:48.898Z,100355.03
2022-11-25T12:17:42.659Z,100355.22
2022-11-25T12:20:37.465Z,100354.84
2022-11-25T12:23:36.134Z,100366.06
2022-11-25T12:26:28.204Z,100360.00
2022-11-25T12:29:21.616Z,100364.22
2022-11-25T12:32:44.326Z,100361.56
2022-11-25T12:35:41.611Z,100356.19
2022-11-25T12:38:38.625Z,100362.25
2022-11-25T12:41:30.827Z,100363.72
2022-11-25T12:44:22.281Z,100366.72
2022-11-25T12:47:12.342Z,100374.09
2022-11-25T12:50:01.042Z,100381.25
2022-11-25T12:52:55.679Z,100387.88
2022-11-25T12:55:45.573Z,100398.47
2022-11-25T12:58:46.814Z,100402.94
2022-11-25T13:01:55.688Z,100316.09
2022-11-25T13:05:18.486Z,100417.63
2022-11-25T13:08:21.394Z,100393.75
2022-11-25T13:11:26.278Z,100413.34
2022-11-25T13:14:21.211Z,100402.88
2022-11-25T13:17:11.588Z,100413.16
2022-11-25T13:20:33.988Z,100376.13
2022-11-25T13:23:27.733Z,100380.28
2022-11-25T13:26:49.976Z,100414.59
2022-11-25T13:30:00.273Z,100425.56
2022-11-25T13:32:48.798Z,100418.78
2022-11-25T13:35:50.554Z,100419.16
2022-11-25T13:38:59.527Z,100428.66
2022-11-25T13:42:00.614Z,100428.66
2022-11-25T13:44:52.471Z,100442.22
2022-11-25T13:47:49.528Z,100438.28
2022-11-25T13:51:03.324Z,100445.53
2022-11-25T13:53:52.752Z,100457.84
2022-11-25T13:56:41.248Z,100465.88
2022-11-25T13:59:39.948Z,100402.44
2022-11-25T14:02:35.099Z,100468.72
2022-11-25T14:05:53.975Z,100471.59
2022-11-25T14:08:47.021Z,100480.06
2022-11-25T14:11:45.057Z,100478.69
2022-11-25T14:14:49.925Z,100485.06
2022-11-25T14:18:14.149Z,100505.03
2022-11-25T14:21:07.518Z,100495.97
2022-11-25T14:24:06.233Z,100504.13
2022-11-25T14:26:55.343Z,100514.63
2022-11-25T14:29:49.605Z,100510.28
2022-11-25T14:32:42.427Z,100510.66
2022-11-25T14:35:33.965Z,100497.09
2022-11-25T14:38:25.790Z,100399.75
2022-11-25T14:41:18.220Z,100503.19
2022-11-25T14:44:11.395Z,100510.97
2022-11-25T14:47:05.365Z,100513.06
2022-11-25T14:50:18.903Z,100521.13
2022-11-25T14:53:07.542Z,100525.84
2022-11-25T14:55:57.851Z,100524.19
2022-11-25T14:58:48.017Z,100519.84
2022-11-25T15:01:37.781Z,100517.34
2022-11-25T15:04:27.977Z,100541.34
2022-11-25T15:07:20.462Z,100527.22
2022-11-25T15:10:37.862Z,100514.47
2022-11-25T15:13:31.693Z,100534.75
2022-11-25T15:16:21.862Z,100546.25
2022-11-25T15:19:17.713Z,100538.09
2022-11-25T15:22:22.349Z,100547.91
2022-11-25T15:25:15.815Z,100546.47
2022-11-25T15:28:04.345Z,100543.25
2022-11-25T15:30:59.678Z,100546.91
2022-11-25T15:33:48.742Z,100552.13
2022-11-25T15:36:37.355Z,100469.72
2022-11-25T15:39:29.422Z,100577.16
2022-11-25T15:42:20.516Z,100575.69
2022-11-25T15:45:11.429Z,100588.63
2022-11-25T15:47:59.939Z,100599.16
2022-11-25T15:50:48.481Z,100602.56
2022-11-25T15:53:39.118Z,100596.97
2022-11-25T15:56:29.282Z,100606.59
2022-11-25T15:59:42.619Z,100609.66
2022-11-25T16:02:40.013Z,100607.97
2022-11-25T16:05:37.973Z,100596.25
2022-11-25T16:08:32.575Z,100604.81
2022-11-25T16:11:21.337Z,100450.47
2022-11-25T16:14:26.893Z,100600.13
2022-11-25T16:17:15.461Z,100602.06
2022-11-25T16:20:04.251Z,100610.09
2022-11-25T16:22:52.741Z,100614.47
2022-11-25T16:25:41.393Z,100616.66
2022-11-25T16:28:30.250Z,100621.75
2022-11-25T16:31:20.567Z,100624.97
2022-11-25T16:34:14.048Z,100631.72
2022-11-25T16:37:02.553Z,100640.31
2022-11-25T16:39:51.096Z,100617.78
2022-11-25T16:42:39.816Z,100647.41
2022-11-25T16:45:29.523Z,100649.25
2022-11-25T16:48:21.904Z,100651.28
2022-11-25T16:51:14.941Z,100649.06
2022-11-25T16:54:04.543Z,100651.84
2022-11-25T16:56:54.595Z,100667.44
2022-11-25T16:59:44.032Z,100655.81
2022-11-25T17:02:33.182Z,100652.56
2022-11-25T17:05:24.732Z,100627.91
2022-11-25T17:08:13.533Z,100673.97
2022-11-25T17:11:02.091Z,100694.72
2022-11-25T17:13:51.882Z,100688.19
2022-11-25T17:16:42.751Z,100701.47
2022-11-25T17:19:31.505Z,100685.47
2022-11-25T17:22:23.131Z,100704.31
2022-11-25T17:25:13.138Z,100705.00
2022-11-25T17:28:01.859Z,100699.06
2022-11-25T17:30:50.550Z,100715.56
2022-11-25T17:33:42.244Z,100705.13
2022-11-25T17:36:30.747Z,100706.66
2022-11-25T17:39:20.635Z,100714.16
2022-11-25T17:42:11.748Z,100723.84
2022-11-25T17:45:01.015Z,100726.44
2022-11-25T17:47:49.628Z,100735.78
2022-11-25T17:50:38.065Z,100718.63
2022-11-25T17:53:26.511Z,100734.38
2022-11-25T17:56:20.385Z,100733.38
2022-11-25T17:59:13.076Z,100744.91
2022-11-25T18:02:01.670Z,100749.81
2022-11-25T18:04:50.746Z,100767.34
2022-11-25T18:07:39.267Z,100768.00
2022-11-25T18:10:28.584Z,100771.94
2022-11-25T18:13:18.840Z,100775.97
2022-11-25T18:16:08.715Z,100760.59
2022-11-25T18:18:57.258Z,100773.72
2022-11-25T18:21:45.763Z,100776.72
2022-11-25T18:24:34.221Z,100765.22
2022-11-25T18:27:25.108Z,100751.25
2022-11-25T18:30:20.386Z,100775.56
2022-11-25T18:33:13.542Z,100785.94
2022-11-25T18:36:02.055Z,100802.63
2022-11-25T18:38:51.524Z,100806.47
2022-11-25T18:41:40.304Z,100817.13
2022-11-25T18:44:30.022Z,100818.88
2022-11-25T18:47:19.935Z,100817.72
2022-11-25T18:50:14.577Z,100820.41
2022-11-25T18:53:03.167Z,100822.13
2022-11-25T18:55:51.689Z,100819.34
2022-11-25T18:58:40.716Z,100808.28
2022-11-25T19:01:29.471Z,100838.44
2022-11-25T19:04:19.420Z,100838.28
2022-11-25T19:07:08.046Z,100840.31
2022-11-25T19:09:56.563Z,100845.75
2022-11-25T19:12:48.920Z,100849.91
2022-11-25T19:15:37.600Z,100848.41
2022-11-25T19:18:29.260Z,100857.75
2022-11-25T19:21:21.111Z,100864.81
2022-11-25T19:24:13.262Z,100872.53
2022-11-25T19:27:02.075Z,100868.38
2022-11-25T19:29:56.317Z,100880.97
2022-11-25T19:32:48.081Z,100899.19
2022-11-25T19:35:37.735Z,100883.97
2022-11-25T19:38:27.599Z,100895.53
2022-11-25T19:41:16.155Z,100902.03
2022-11-25T19:44:04.681Z,100910.91
2022-11-25T19:47:14.207Z,100914.94
2022-11-25T19:50:02.439Z,100926.31
2022-11-25T19:52:51.316Z,100933.84
2022-11-25T19:55:41.253Z,100946.88
2022-11-25T19:58:29.747Z,100802.88
2022-11-25T20:01:18.857Z,100951.53
2022-11-25T20:04:08.284Z,100910.81
2022-11-25T20:06:56.934Z,100843.44
2022-11-25T20:09:45.478Z,100853.78
2022-11-25T20:12:35.465Z,100958.84
2022-11-25T20:15:24.798Z,100972.59
2022-11-25T20:18:18.141Z,100961.91
2022-11-25T20:21:07.583Z,100969.50
2022-11-25T20:23:56.211Z,100991.78
2022-11-25T20:26:48.488Z,100981.81
2022-11-25T20:29:38.344Z,100990.53
2022-11-25T20:32:29.290Z,100982.56
2022-11-25T20:35:18.427Z,100996.25
2022-11-25T20:38:07.111Z,100995.06
2022-11-25T20:40:57.538Z,101006.78
2022-11-25T20:43:48.549Z,101016.47
2022-11-25T20:46:38.347Z,101024.34
2022-11-25T20:49:29.129Z,101005.66
2022-11-25T20:52:22.239Z,101030.88
2022-11-25T20:55:18.415Z,101030.03
2022-11-25T20:58:18.535Z,101030.03
2022-11-25T21:01:07.548Z,101036.91
2022-11-25T21:03:57.475Z,101035.91
2022-11-25T21:06:46.362Z,101037.53
2022-11-25T21:09:36.184Z,101040.06
2022-11-25T21:12:24.670Z,101041.22
2022-11-25T21:15:15.061Z,101049.41
2022-11-25T21:18:03.524Z,101046.25
2022-11-25T21:20:55.507Z,101039.41
2022-11-25T21:23:45.313Z,101056.44
2022-11-25T21:26:33.954Z,101060.47
2022-11-25T21:29:22.580Z,101064.16
2022-11-25T21:32:20.733Z,101068.81
2022-11-25T21:35:10.421Z,101071.03
2022-11-25T21:38:03.358Z,101056.50
2022-11-25T21:40:53.418Z,101078.53
2022-11-25T21:43:44.177Z,101070.00
2022-11-25T21:46:32.796Z,101033.59
2022-11-25T21:49:21.398Z,101076.38
2022-11-25T21:52:09.867Z,101065.78
2022-11-25T21:55:00.439Z,101078.16
2022-11-25T21:57:48.993Z,101072.97
2022-11-25T22:00:37.587Z,101084.19
2022-11-25T22:03:29.014Z,101091.06
2022-11-25T22:06:20.220Z,101094.38
2022-11-25T22:09:09.072Z,101083.50
2022-11-25T22:11:59.041Z,101079.34
2022-11-25T22:14:47.559Z,101080.97
2022-11-25T22:17:36.080Z,101090.16
2022-11-25T22:20:30.593Z,101096.50
2022-11-25T22:23:19.744Z,101100.19
2022-11-25T22:26:08.782Z,101105.22
2022-11-25T22:28:59.875Z,101102.53
2022-11-25T22:31:49.625Z,101095.19
2022-11-25T22:34:38.314Z,101094.34
2022-11-25T22:37:26.938Z,101087.56
2022-11-25T22:40:16.613Z,101084.41
2022-11-25T22:43:05.170Z,101100.47
2022-11-25T22:45:55.584Z,101103.63
2022-11-25T22:48:44.362Z,101097.63
2022-11-25T22:51:34.165Z,101111.16
2022-11-25T22:54:23.668Z,101114.16
2022-11-25T22:57:12.304Z,101115.03
2022-11-25T23:00:00.767Z,101112.38
2022-11-25T23:02:51.423Z,101117.72
2022-11-25T23:05:40.753Z,101118.53
2022-11-25T23:08:31.592Z,101113.03
2022-11-25T23:11:21.543Z,101124.38
2022-11-25T23:14:10.008Z,101126.91
2022-11-25T23:16:58.515Z,101125.56
2022-11-25T23:19:48.792Z,101131.75
2022-11-25T23:22:38.191Z,101141.44
2022-11-25T23:25:26.777Z,101141.94
2022-11-25T23:28:16.228Z,101150.81
2022-11-25T23:31:04.806Z,101145.63
2022-11-25T23:33:54.042Z,101156.81
2022-11-25T23:36:46.732Z,101146.94
2022-11-25T23:39:35.235Z,101150.63
2022-11-25T23:42:23.756Z,101151.97
2022-11-25T23:45:14.858Z,101156.66
2022-11-25T23:48:04.792Z,101151.44
2022-11-25T23:50:54.816Z,101151.81
2022-11-25T23:53:44.994Z,101168.84
2022-11-25T23:56:33.487Z,101163.19
2022-11-25T23:59:22.010Z,101159.16
